Time;durP1;ratioP1;P1;durP2;ratioP2;P2;SDS_P1;SDS_P2;PMS_P1;PMS_P2;Temp;Humidity;BMP_temperature;BMP_pressure;BME280_temperature;BME280_humidity;BME280_pressure;Samples;Min_cycle;Max_cycle;Signal;HPM_P1;HPM_P2
2022/05/09 00:00:39;;;;;;;17.93;3.63;;;8.60;99.90;;;;;;5133271;28;20055;-71
2022/05/09 00:03:05;;;;;;;17.97;3.97;;;8.60;99.90;;;;;;5133585;27;20051;-70
2022/05/09 00:05:30;;;;;;;13.33;3.60;;;8.70;99.90;;;;;;5133244;28;20047;-71
2022/05/09 00:07:56;;;;;;;18.30;4.93;;;8.70;99.90;;;;;;5115544;28;20050;-70
2022/05/09 00:10:25;;;;;;;13.40;4.00;;;8.70;99.90;;;;;;5132410;28;20043;-70
2022/05/09 00:12:52;;;;;;;15.83;4.53;;;8.80;99.90;;;;;;5133422;28;20277;-70
2022/05/09 00:15:19;;;;;;;17.90;4.50;;;8.70;99.90;;;;;;5132227;28;20273;-70
2022/05/09 00:17:45;;;;;;;20.73;4.73;;;8.80;99.90;;;;;;5131634;28;20309;-70
2022/05/09 00:20:13;;;;;;;11.98;4.65;;;8.70;99.90;;;;;;5132208;28;20775;-70
2022/05/09 00:22:53;;;;;;;15.40;4.13;;;8.70;99.90;;;;;;5132973;28;20039;-70
2022/05/09 00:25:21;;;;;;;20.20;4.40;;;8.70;99.90;;;;;;5131972;28;20285;-70
2022/05/09 00:27:47;;;;;;;23.17;4.43;;;8.70;99.90;;;;;;5132932;28;20372;-70
2022/05/09 00:30:14;;;;;;;19.67;3.60;;;8.60;99.90;;;;;;5133204;28;20750;-70
2022/05/09 00:32:40;;;;;;;17.67;3.70;;;8.60;99.90;;;;;;5133432;27;20047;-70
2022/05/09 00:35:08;;;;;;;19.07;3.90;;;8.60;99.90;;;;;;5137001;27;20265;-70
2022/05/09 00:37:34;;;;;;;12.70;4.40;;;8.60;99.90;;;;;;5136605;27;20047;-70
2022/05/09 00:40:00;;;;;;;15.93;3.90;;;8.60;99.90;;;;;;5136998;27;20285;-70
2022/05/09 00:42:25;;;;;;;15.07;3.67;;;8.70;99.90;;;;;;5136855;27;20087;-70
2022/05/09 00:44:51;;;;;;;15.63;3.80;;;8.70;99.90;;;;;;5136478;27;20281;-71
2022/05/09 00:47:18;;;;;;;18.07;4.60;;;8.70;99.90;;;;;;5118596;27;20053;-70
2022/05/09 00:49:50;;;;;;;17.13;4.23;;;8.60;99.90;;;;;;5135528;27;20099;-70
2022/05/09 00:52:57;;;;;;;14.98;4.53;;;8.60;99.90;;;;;;5136834;27;20276;-70
2022/05/09 00:55:37;;;;;;;11.97;3.63;;;8.50;99.90;;;;;;5135850;27;20120;-70
2022/05/09 00:58:11;;;;;;;15.03;4.27;;;8.50;99.90;;;;;;5135059;27;20292;-70
2022/05/09 01:00:37;;;;;;;13.10;3.80;;;8.50;99.90;;;;;;5135353;27;20292;-70
2022/05/09 01:03:13;;;;;;;19.90;5.23;;;8.40;99.90;;;;;;5118804;27;20349;-70
2022/05/09 01:05:42;;;;;;;11.27;3.40;;;8.40;99.90;;;;;;5135774;27;20268;-70
2022/05/09 01:08:08;;;;;;;16.92;5.50;;;8.40;99.90;;;;;;5135177;27;20310;-70
2022/05/09 01:10:38;;;;;;;11.80;4.38;;;8.40;99.90;;;;;;5134816;27;20080;-70
2022/05/09 01:13:08;;;;;;;12.95;4.60;;;8.30;99.90;;;;;;5136077;27;20055;-70
2022/05/09 01:15:35;;;;;;;15.88;4.63;;;8.40;99.90;;;;;;5117933;27;20061;-70
2022/05/09 01:18:04;;;;;;;16.75;4.57;;;8.40;99.90;;;;;;5136195;27;20083;-70
2022/05/09 01:20:30;;;;;;;15.82;4.55;;;8.40;99.90;;;;;;5136061;27;20043;-70
2022/05/09 01:22:59;;;;;;;16.45;4.85;;;8.30;99.90;;;;;;5135818;27;20039;-70
2022/05/09 01:25:27;;;;;;;14.75;4.85;;;8.30;99.90;;;;;;5135081;27;20050;-70
2022/05/09 01:27:53;;;;;;;15.68;4.32;;;8.30;99.90;;;;;;5135730;27;20051;-70
2022/05/09 01:30:31;;;;;;;23.27;6.13;;;8.20;99.90;;;;;;5134692;27;20043;-71
2022/05/09 01:33:03;;;;;;;22.05;6.20;;;8.20;99.90;;;;;;5134789;27;20512;-71
2022/05/09 01:35:38;;;;;;;15.25;4.53;;;8.20;99.90;;;;;;5135793;27;20047;-70
2022/05/09 01:38:15;;;;;;;18.63;5.03;;;8.10;99.90;;;;;;5136199;27;20039;-71
2022/05/09 01:40:41;;;;;;;18.10;5.10;;;8.10;99.90;;;;;;5134655;27;20182;-70
2022/05/09 01:43:06;;;;;;;17.40;4.80;;;8.10;99.90;;;;;;5135132;27;20273;-70
2022/05/09 01:45:32;;;;;;;15.80;4.80;;;8.00;99.90;;;;;;5134996;27;20039;-70
2022/05/09 01:50:42;;;;;;;16.35;5.20;;;7.90;99.90;;;;;;5135149;27;20099;-71
2022/05/09 01:53:09;;;;;;;15.70;4.07;;;;;;;;;;5134285;27;20125;-70
2022/05/09 01:55:35;;;;;;;17.10;5.00;;;;;;;;;;5135377;27;20050;-70
2022/05/09 01:58:01;;;;;;;18.05;4.63;;;;;;;;;;5134025;27;20515;-70
2022/05/09 02:00:28;;;;;;;15.38;4.78;;;;;;;;;;5134371;27;20103;-70
2022/05/09 02:02:54;;;;;;;15.63;4.60;;;;;;;;;;5133715;27;20043;-70
2022/05/09 02:05:20;;;;;;;19.38;5.35;;;;;;;;;;5135311;27;20051;-70
2022/05/09 02:07:46;;;;;;;16.67;4.70;;;;;;;;;;5133696;27;20176;-70
2022/05/09 02:10:13;;;;;;;19.10;5.43;;;;;;;;;;5135111;27;20043;-70
2022/05/09 02:12:39;;;;;;;18.52;5.45;;;;;;;;;;5134809;27;20046;-71
2022/05/09 02:15:08;;;;;;;16.48;5.43;;;;;;;;;;5133894;27;20082;-70
2022/05/09 02:17:34;;;;;;;19.75;5.88;;;;;;;;;;5134962;27;20094;-70
2022/05/09 02:20:00;;;;;;;16.73;5.15;;;;;;;;;;5133676;27;20454;-71
2022/05/09 02:22:26;;;;;;;20.90;5.30;;;;;;;;;;5134083;27;20047;-70
2022/05/09 02:24:53;;;;;;;18.80;4.93;;;;;;;;;;5116688;27;20054;-70
2022/05/09 02:27:19;;;;;;;18.70;5.75;;;;;;;;;;5133917;27;20304;-70
2022/05/09 02:29:45;;;;;;;17.30;5.15;;;;;;;;;;5134515;27;20067;-71
2022/05/09 02:32:13;;;;;;;16.02;4.80;;;;;;;;;;5134644;27;20079;-71
2022/05/09 02:34:39;;;;;;;18.75;5.25;;;;;;;;;;5134686;27;20096;-71
2022/05/09 02:37:05;;;;;;;19.65;5.47;;;;;;;;;;5134304;27;20463;-71
2022/05/09 02:39:31;;;;;;;18.63;5.80;;;;;;;;;;5134815;27;20048;-70
2022/05/09 02:41:59;;;;;;;14.95;5.40;;;;;;;;;;5134314;27;20133;-71
2022/05/09 02:44:25;;;;;;;16.90;5.07;;;;;;;;;;5134551;27;20070;-71
2022/05/09 02:46:51;;;;;;;14.77;4.95;;;;;;;;;;5133199;27;20059;-71
2022/05/09 02:49:19;;;;;;;16.38;4.93;;;;;;;;;;5133540;27;20473;-70
2022/05/09 02:51:46;;;;;;;18.83;5.05;;;;;;;;;;5134135;27;20502;-71
2022/05/09 02:54:13;;;;;;;18.52;5.60;;;;;;;;;;5134472;27;20073;-71
2022/05/09 02:56:39;;;;;;;18.67;5.95;;;;;;;;;;5133870;27;20043;-71
2022/05/09 02:59:05;;;;;;;18.02;5.05;;;;;;;;;;5133963;27;20378;-70
2022/05/09 03:01:31;;;;;;;17.15;5.18;;;;;;;;;;5133020;27;20047;-71
2022/05/09 03:06:41;;;;;;;14.98;4.85;;;;;;;;;;5134404;27;20054;-70
2022/05/09 03:09:08;;;;;;;20.10;5.57;;;;;;;;;;5133820;27;20391;-71
2022/05/09 03:11:34;;;;;;;19.40;5.15;;;;;;;;;;5133377;27;20399;-71
2022/05/09 03:14:00;;;;;;;15.32;5.80;;;;;;;;;;5115699;27;20090;-71
2022/05/09 03:16:26;;;;;;;21.13;6.13;;;;;;;;;;5134073;27;20047;-71
2022/05/09 03:18:52;;;;;;;15.98;5.75;;;;;;;;;;5132722;27;20099;-71
2022/05/09 03:21:18;;;;;;;14.93;5.15;;;;;;;;;;5134236;27;20451;-71
2022/05/09 03:23:45;;;;;;;25.13;6.30;;;;;;;;;;5132803;27;20047;-71
2022/05/09 03:26:11;;;;;;;16.42;5.68;;;;;;;;;;5132686;27;20471;-71
2022/05/09 03:28:37;;;;;;;20.45;5.88;;;;;;;;;;5133910;27;20047;-71
2022/05/09 03:31:04;;;;;;;16.17;5.65;;;7.50;99.90;;;;;;5132541;27;20091;-71
2022/05/09 03:33:30;;;;;;;22.58;5.95;;;7.50;99.90;;;;;;5115982;28;20051;-71
2022/05/09 03:35:59;;;;;;;13.87;6.20;;;7.50;99.90;;;;;;5115063;28;20046;-71
2022/05/09 03:38:25;;;;;;;22.02;5.95;;;7.40;99.90;;;;;;5133803;28;20439;-71
2022/05/09 03:40:51;;;;;;;16.52;6.32;;;7.30;99.90;;;;;;5133416;28;20051;-71
2022/05/09 03:43:16;;;;;;;18.43;6.50;;;7.30;99.90;;;;;;5115375;28;20035;-70
2022/05/09 03:45:45;;;;;;;22.67;5.80;;;7.30;99.90;;;;;;5133548;28;20051;-70
2022/05/09 03:48:10;;;;;;;17.45;6.75;;;7.30;99.90;;;;;;5133419;28;20089;-70
2022/05/09 03:50:36;;;;;;;16.33;5.67;;;7.30;99.90;;;;;;5133780;28;20079;-70
2022/05/09 03:53:02;;;;;;;21.83;6.47;;;7.20;99.90;;;;;;5133398;28;20035;-71
2022/05/09 03:55:28;;;;;;;16.40;5.70;;;7.20;99.90;;;;;;5132331;28;20058;-70
2022/05/09 03:57:56;;;;;;;19.00;6.17;;;7.20;99.90;;;;;;5133105;28;20055;-70
2022/05/09 04:00:28;;;;;;;19.65;5.93;;;7.20;99.90;;;;;;5133645;28;20147;-70
2022/05/09 04:02:54;;;;;;;16.42;5.93;;;7.20;99.90;;;;;;5133367;28;20054;-71
2022/05/09 04:05:20;;;;;;;18.23;4.88;;;7.30;99.90;;;;;;5133771;28;20097;-70
2022/05/09 04:07:49;;;;;;;20.48;6.55;;;7.20;99.90;;;;;;5134407;27;20051;-69
2022/05/09 04:10:17;;;;;;;17.05;6.55;;;7.30;99.90;;;;;;5137374;27;20047;-70
2022/05/09 04:12:43;;;;;;;22.75;6.65;;;7.30;99.90;;;;;;5137555;27;20039;-71
2022/05/09 04:17:55;;;;;;;19.27;5.55;;;7.30;99.90;;;;;;5135890;27;20438;-71
2022/05/09 04:20:21;;;;;;;19.25;6.40;;;7.30;99.90;;;;;;5136208;27;20047;-70
2022/05/09 04:22:47;;;;;;;18.60;6.03;;;7.30;99.90;;;;;;5137302;27;20410;-71
2022/05/09 04:25:15;;;;;;;14.43;5.50;;;7.40;99.90;;;;;;5135764;27;20043;-71
2022/05/09 04:27:41;;;;;;;21.88;6.97;;;7.30;99.90;;;;;;5137211;27;20069;-70
2022/05/09 04:30:09;;;;;;;13.95;5.63;;;7.30;99.90;;;;;;5136880;27;20046;-72
2022/05/09 04:32:39;;;;;;;26.42;6.40;;;7.30;99.90;;;;;;5136140;27;20058;-72
2022/05/09 04:35:05;;;;;;;23.58;6.30;;;7.30;99.90;;;;;;5136986;27;20047;-72
2022/05/09 04:37:32;;;;;;;20.48;6.38;;;7.30;99.90;;;;;;5135898;27;20046;-72
2022/05/09 04:39:59;;;;;;;18.90;6.32;;;7.30;99.90;;;;;;5135510;27;20179;-72
2022/05/09 04:42:25;;;;;;;16.08;5.80;;;7.30;99.90;;;;;;5135758;27;20047;-72
2022/05/09 04:44:50;;;;;;;16.52;6.00;;;7.40;99.90;;;;;;5135741;27;20123;-72
2022/05/09 04:47:16;;;;;;;15.40;6.10;;;7.40;99.90;;;;;;5135533;27;20482;-72
2022/05/09 04:49:42;;;;;;;18.70;6.60;;;7.50;99.90;;;;;;5135823;27;20130;-72
2022/05/09 04:52:07;;;;;;;17.77;5.83;;;7.50;99.90;;;;;;5136467;27;20396;-72
2022/05/09 04:54:33;;;;;;;19.27;6.10;;;7.60;99.90;;;;;;5118910;27;20368;-70
2022/05/09 04:56:59;;;;;;;16.60;5.80;;;7.60;99.90;;;;;;5136258;27;20039;-70
2022/05/09 04:59:25;;;;;;;19.23;6.17;;;7.70;99.90;;;;;;5136335;27;20055;-70
2022/05/09 05:01:50;;;;;;;17.30;6.20;;;7.80;99.90;;;;;;5136406;27;20128;-70
2022/05/09 05:04:17;;;;;;;18.33;6.13;;;7.80;99.90;;;;;;5136303;27;20043;-70
2022/05/09 05:06:44;;;;;;;15.07;6.05;;;7.90;99.90;;;;;;5135347;27;20035;-72
2022/05/09 05:09:10;;;;;;;16.42;5.95;;;8.00;99.90;;;;;;5135039;27;20081;-73
2022/05/09 05:11:37;;;;;;;19.08;6.68;;;8.10;99.90;;;;;;5136676;27;20108;-72
2022/05/09 05:14:03;;;;;;;18.00;6.18;;;8.20;99.90;;;;;;5136065;27;20127;-72
2022/05/09 05:19:13;;;;;;;20.63;5.63;;;8.30;99.90;;;;;;5134669;27;20055;-70
2022/05/09 05:21:42;;;;;;;19.17;5.47;;;8.50;99.90;;;;;;5136170;27;20375;-70
2022/05/09 05:24:08;;;;;;;18.02;5.82;;;8.60;99.90;;;;;;5135838;27;20051;-70
2022/05/09 05:26:34;;;;;;;15.38;5.43;;;8.70;99.90;;;;;;5118281;27;20053;-70
2022/05/09 05:29:00;;;;;;;20.80;5.47;;;8.80;99.90;;;;;;5135818;27;20554;-70
2022/05/09 05:31:26;;;;;;;12.60;5.33;;;9.00;99.90;;;;;;5135950;27;20402;-70
2022/05/09 05:33:52;;;;;;;18.20;5.50;;;9.10;99.90;;;;;;5135016;27;20054;-70
2022/05/09 05:36:18;;;;;;;16.17;5.60;;;9.20;99.90;;;;;;5134401;27;20293;-70
2022/05/09 05:38:44;;;;;;;15.77;5.03;;;9.40;99.90;;;;;;5134840;27;20048;-70
2022/05/09 05:41:10;;;;;;;17.00;5.30;;;9.60;99.90;;;;;;5135505;27;20046;-69
2022/05/09 05:43:35;;;;;;;16.80;5.33;;;9.90;99.90;;;;;;5117618;27;20051;-70
2022/05/09 05:46:01;;;;;;;17.27;5.53;;;10.10;99.90;;;;;;5134846;27;20353;-70
2022/05/09 05:48:27;;;;;;;13.70;5.07;;;10.90;99.90;;;;;;5135737;27;20086;-70
2022/05/09 05:50:53;;;;;;;13.17;5.13;;;12.20;99.90;;;;;;5134422;27;20085;-70
2022/05/09 05:53:19;;;;;;;18.70;5.30;;;13.50;99.90;;;;;;5116757;27;20146;-70
2022/05/09 05:55:45;;;;;;;13.00;4.83;;;;;;;;;;5135393;27;20112;-70
2022/05/09 05:58:11;;;;;;;21.00;6.30;;;15.60;99.90;;;;;;5135018;27;20304;-70
2022/05/09 06:00:37;;;;;;;11.60;4.47;;;;;;;;;;5134466;27;20292;-70
2022/05/09 06:03:03;;;;;;;14.40;5.00;;;16.90;99.90;;;;;;5134290;27;20082;-70
2022/05/09 06:05:30;;;;;;;15.97;5.03;;;;;;;;;;5135297;27;20331;-70
2022/05/09 06:07:56;;;;;;;12.00;4.10;;;18.00;99.90;;;;;;5135137;27;20273;-70
2022/05/09 06:10:22;;;;;;;15.17;4.90;;;18.50;85.90;;;;;;5134878;27;20608;-70
2022/05/09 06:12:49;;;;;;;13.73;5.07;;;19.20;58.90;;;;;;5134056;27;20432;-70
2022/05/09 06:15:25;;;;;;;12.60;4.37;;;19.50;69.90;;;;;;5133434;27;20562;-70
2022/05/09 06:17:52;;;;;;;14.33;5.73;;;20.00;66.20;;;;;;5135269;27;20066;-70
2022/05/09 06:20:18;;;;;;;12.47;5.23;;;20.60;62.30;;;;;;5134870;27;20153;-70
2022/05/09 06:22:44;;;;;;;11.97;5.13;;;20.90;59.00;;;;;;5116782;27;20091;-70
2022/05/09 06:25:15;;;;;;;13.50;4.70;;;;;;;;;;5134750;27;20050;-70
2022/05/09 06:27:41;;;;;;;20.30;4.97;;;;;;;;;;5134253;27;20058;-70
2022/05/09 06:30:08;;;;;;;11.03;5.03;;;;;;;;;;5134091;27;20051;-70
2022/05/09 06:32:35;;;;;;;12.03;4.20;;;;;;;;;;5134900;27;20047;-71
2022/05/09 06:35:05;;;;;;;13.73;4.73;;;;;;;;;;5133863;27;20120;-71
2022/05/09 06:37:33;;;;;;;13.37;5.07;;;;;;;;;;5133199;27;20043;-71
2022/05/09 06:39:59;;;;;;;11.50;4.37;;;22.10;49.40;;;;;;5134646;27;20043;-71
2022/05/09 06:42:27;;;;;;;12.10;4.93;;;22.40;49.80;;;;;;5134377;27;20399;-71
2022/05/09 06:44:53;;;;;;;15.23;4.97;;;22.70;49.20;;;;;;5133675;27;20056;-70
2022/05/09 06:47:19;;;;;;;13.57;4.93;;;23.00;49.20;;;;;;5134273;27;20045;-71
2022/05/09 06:49:45;;;;;;;11.97;4.53;;;23.40;48.10;;;;;;5116375;27;20134;-70
2022/05/09 06:52:11;;;;;;;10.97;4.67;;;23.70;46.80;;;;;;5133072;27;20496;-70
2022/05/09 06:54:37;;;;;;;12.60;4.53;;;;;;;;;;5133268;27;20043;-70
2022/05/09 06:57:03;;;;;;;12.87;4.80;;;23.80;45.10;;;;;;5133027;27;20476;-70
2022/05/09 06:59:31;;;;;;;13.83;4.77;;;24.20;45.90;;;;;;5132870;27;20080;-69
2022/05/09 07:01:57;;;;;;;16.97;4.57;;;24.80;45.50;;;;;;5134360;27;20107;-68
2022/05/09 07:04:23;;;;;;;15.10;4.80;;;25.00;44.40;;;;;;5134101;27;20042;-68
2022/05/09 07:06:49;;;;;;;11.10;4.07;;;;;;;;;;5134204;27;20046;-69
2022/05/09 07:09:15;;;;;;;14.43;4.83;;;25.50;40.40;;;;;;5133975;27;20124;-69
2022/05/09 07:11:42;;;;;;;17.93;5.07;;;25.60;42.70;;;;;;5134274;27;20102;-69
2022/05/09 07:14:08;;;;;;;14.07;4.50;;;25.70;42.10;;;;;;5134145;27;20047;-69
2022/05/09 07:16:34;;;;;;;13.57;4.90;;;;;;;;;;5133737;27;20392;-69
2022/05/09 07:19:00;;;;;;;14.43;5.00;;;25.80;40.10;;;;;;5134173;27;20475;-69
2022/05/09 07:21:27;;;;;;;14.00;4.60;;;25.90;41.60;;;;;;5133747;27;20047;-69
2022/05/09 07:23:52;;;;;;;14.93;4.73;;;25.80;41.10;;;;;;5134010;27;20047;-69
2022/05/09 07:26:18;;;;;;;12.47;4.33;;;26.20;41.60;;;;;;5133727;27;20524;-70
2022/05/09 07:28:44;;;;;;;14.30;5.03;;;26.40;41.20;;;;;;5134073;27;20455;-69
2022/05/09 07:31:10;;;;;;;13.10;4.80;;;27.10;40.80;;;;;;5098788;28;20122;-69
2022/05/09 07:33:36;;;;;;;13.07;4.30;;;27.20;54.30;;;;;;5133562;27;20090;-69
2022/05/09 07:36:04;;;;;;;12.37;4.87;;;27.30;39.50;;;;;;5133807;28;20039;-69
2022/05/09 07:38:30;;;;;;;12.40;5.22;;;;;;;;;;5133569;28;20058;-69
2022/05/09 07:40:57;;;;;;;13.27;4.15;;;;;;;;;;5134003;27;20521;-69
2022/05/09 07:43:25;;;;;;;12.90;4.25;;;;;;;;;;5137837;27;20082;-69
2022/05/09 07:45:52;;;;;;;12.70;5.13;;;28.00;54.60;;;;;;5137957;27;20501;-69
2022/05/09 07:48:21;;;;;;;12.15;4.85;;;28.10;53.20;;;;;;5119319;27;20047;-69
2022/05/09 07:50:48;;;;;;;13.82;4.90;;;28.20;54.40;;;;;;5138000;27;20126;-69
2022/05/09 07:53:19;;;;;;;14.88;5.30;;;28.30;38.20;;;;;;5137984;27;20073;-69
2022/05/09 07:55:45;;;;;;;13.07;5.28;;;;;;;;;;5137960;27;20047;-69
2022/05/09 07:58:12;;;;;;;11.07;4.68;;;28.80;36.50;;;;;;5137407;27;20406;-69
2022/05/09 08:00:39;;;;;;;13.90;5.47;;;28.90;36.90;;;;;;5137417;27;20475;-67
2022/05/09 08:03:06;;;;;;;11.20;4.40;;;28.90;36.70;;;;;;5137562;27;20555;-69
2022/05/09 08:05:34;;;;;;;15.13;4.88;;;28.90;36.50;;;;;;5135849;27;20124;-67
2022/05/09 08:08:01;;;;;;;13.52;4.63;;;;;;;;;;5134406;27;20046;-68
2022/05/09 08:10:27;;;;;;;13.88;5.10;;;28.50;35.40;;;;;;5135806;27;20411;-68
2022/05/09 08:12:53;;;;;;;11.75;4.70;;;28.50;36.30;;;;;;5137214;27;20050;-69
2022/05/09 08:15:20;;;;;;;13.85;4.97;;;27.70;37.20;;;;;;5135918;27;20044;-68
2022/05/09 08:17:49;;;;;;;10.85;5.15;;;27.40;37.60;;;;;;5136478;27;20035;-67
2022/05/09 08:20:15;;;;;;;14.00;4.13;;;;;;;;;;5137219;27;20043;-67
2022/05/09 08:22:41;;;;;;;11.88;4.35;;;26.60;37.60;;;;;;5137100;27;20054;-67
2022/05/09 08:25:07;;;;;;;14.18;4.88;;;;;;;;;;5136226;27;20050;-67
2022/05/09 08:27:34;;;;;;;13.32;4.60;;;25.10;37.80;;;;;;5136014;27;20091;-69
2022/05/09 08:30:00;;;;;;;10.63;3.63;;;24.60;39.10;;;;;;5136899;27;20415;-68
2022/05/09 08:32:27;;;;;;;10.93;4.25;;;23.80;40.30;;;;;;5136914;27;20130;-69
2022/05/09 08:34:54;;;;;;;12.10;3.50;;;23.60;40.80;;;;;;5137206;27;20043;-67
2022/05/09 08:37:19;;;;;;;11.68;4.18;;;23.00;41.10;;;;;;5135572;27;20082;-66
2022/05/09 08:39:46;;;;;;;12.30;4.13;;;22.70;41.40;;;;;;5137026;27;20087;-67
2022/05/09 08:42:36;;;;;;;11.03;3.83;;;22.40;41.50;;;;;;5136128;27;20479;-67
2022/05/09 08:45:01;;;;;;;14.60;4.77;;;22.40;41.90;;;;;;5170676;27;20441;-68
2022/05/09 08:47:49;;;;;;;10.70;4.20;;;22.30;42.00;;;;;;5133895;27;20043;-69
2022/05/09 08:50:37;;;;;;;11.97;3.63;;;22.10;43.60;;;;;;5135899;27;20070;-69
2022/05/09 08:53:22;;;;;;;11.13;4.00;;;22.10;43.60;;;;;;5135082;27;20411;-68
2022/05/09 08:55:49;;;;;;;11.47;3.63;;;22.20;42.80;;;;;;5134526;27;20509;-68
2022/05/09 08:58:20;;;;;;;10.87;4.10;;;22.20;42.30;;;;;;5134575;27;20055;-68
2022/05/09 09:00:49;;;;;;;12.43;3.77;;;;;;;;;;5135444;27;20051;-68
2022/05/09 09:03:17;;;;;;;12.97;3.73;;;21.80;42.40;;;;;;5131661;27;20394;-67
2022/05/09 09:05:47;;;;;;;13.30;3.90;;;21.70;43.20;;;;;;5134188;27;20060;-70
2022/05/09 09:08:39;;;;;;;13.33;3.63;;;21.60;43.70;;;;;;5135659;27;20114;-70
2022/05/09 09:11:28;;;;;;;10.57;3.13;;;21.50;43.90;;;;;;5101108;27;20048;-70
2022/05/09 09:14:08;;;;;;;11.07;3.27;;;21.60;43.70;;;;;;5117020;27;20065;-69
2022/05/09 09:16:56;;;;;;;11.20;3.53;;;21.40;43.30;;;;;;5134864;27;20433;-69
2022/05/09 09:19:50;;;;;;;14.77;3.40;;;21.10;42.80;;;;;;5136088;27;20069;-70
2022/05/09 09:22:49;;;;;;;14.43;3.78;;;21.10;43.40;;;;;;5135687;27;20046;-69
2022/05/09 09:25:45;;;;;;;11.60;3.67;;;21.00;42.70;;;;;;5134743;27;20047;-65
2022/05/09 09:28:20;;;;;;;10.83;3.40;;;20.90;42.80;;;;;;5135711;27;20043;-65
2022/05/09 09:30:48;;;;;;;11.40;3.97;;;20.80;43.20;;;;;;5135602;27;20043;-65
2022/05/09 09:33:18;;;;;;;17.50;3.33;;;20.70;43.30;;;;;;5134284;27;20043;-68
2022/05/09 09:35:52;;;;;;;7.77;2.97;;;20.60;42.80;;;;;;5134381;27;20054;-69
2022/05/09 09:38:25;;;;;;;13.83;3.63;;;20.70;43.30;;;;;;5134836;27;20039;-66
2022/05/09 09:40:51;;;;;;;8.37;3.37;;;20.70;43.00;;;;;;5134064;27;20055;-68
2022/05/09 09:43:17;;;;;;;12.83;3.33;;;20.70;43.30;;;;;;5133043;27;20055;-68
2022/05/09 09:46:01;;;;;;;8.37;3.03;;;20.60;43.00;;;;;;5115894;27;20058;-68
2022/05/09 09:48:26;;;;;;;12.73;3.27;;;20.60;43.00;;;;;;5135671;27;20589;-68
2022/05/09 09:51:04;;;;;;;17.00;4.10;;;20.50;43.10;;;;;;5134037;27;20129;-68
2022/05/09 09:53:44;;;;;;;11.23;3.63;;;20.50;44.00;;;;;;5135331;27;20047;-69
2022/05/09 09:56:22;;;;;;;12.07;3.77;;;20.50;43.80;;;;;;5135533;27;20535;-68
2022/05/09 09:58:54;;;;;;;9.40;2.90;;;20.50;44.10;;;;;;5134775;27;20094;-68
2022/05/09 10:01:30;;;;;;;10.27;3.47;;;20.50;43.00;;;;;;5135498;27;20043;-68
2022/05/09 10:04:23;;;;;;;14.10;3.57;;;20.50;42.80;;;;;;5133913;27;20087;-68
2022/05/09 10:07:16;;;;;;;10.93;3.80;;;20.40;41.90;;;;;;5133658;27;20058;-68
2022/05/09 10:10:00;;;;;;;13.77;3.67;;;20.40;43.00;;;;;;5135066;27;20039;-68
2022/05/09 10:12:29;;;;;;;12.35;3.28;;;20.30;42.70;;;;;;5135388;27;20513;-68
2022/05/09 10:14:55;;;;;;;9.20;3.20;;;20.30;42.70;;;;;;5134850;27;20443;-68
2022/05/09 10:17:29;;;;;;;11.03;3.37;;;20.40;42.20;;;;;;5135042;27;20039;-68
2022/05/09 10:19:56;;;;;;;9.73;3.40;;;;;;;;;;5134851;27;20039;-68
2022/05/09 10:25:27;;;;;;;11.67;2.90;;;20.10;41.60;;;;;;5134980;27;20090;-68
2022/05/09 10:28:14;;;;;;;10.03;3.43;;;20.10;41.30;;;;;;5134562;27;20035;-68
2022/05/09 10:30:44;;;;;;;10.67;3.13;;;20.10;41.10;;;;;;5134651;27;20043;-68
2022/05/09 10:33:38;;;;;;;10.33;2.97;;;20.00;41.00;;;;;;5133836;27;20050;-68
2022/05/09 10:36:23;;;;;;;11.68;3.50;;;19.90;40.50;;;;;;5133717;27;20043;-68
2022/05/09 10:39:28;;;;;;;7.63;2.63;;;20.00;44.50;;;;;;5133512;27;20474;-68
2022/05/09 10:41:59;;;;;;;9.53;3.20;;;19.90;41.20;;;;;;5131191;27;20194;-68
2022/05/09 10:44:46;;;;;;;10.77;2.63;;;19.90;41.30;;;;;;5134525;27;20090;-68
2022/05/09 10:47:22;;;;;;;11.30;3.73;;;19.90;41.00;;;;;;5133780;27;20129;-68
2022/05/09 10:50:11;;;;;;;13.93;3.60;;;20.00;40.40;;;;;;5133985;27;20053;-69
2022/05/09 10:52:55;;;;;;;8.20;2.93;;;19.90;40.60;;;;;;5133443;27;20463;-69
2022/05/09 10:55:21;;;;;;;11.87;3.33;;;19.90;40.80;;;;;;5133471;27;20051;-68
2022/05/09 10:58:08;;;;;;;10.37;2.70;;;19.80;40.70;;;;;;5133669;27;20360;-68
2022/05/09 11:00:40;;;;;;;12.50;3.30;;;19.90;45.40;;;;;;5134470;27;20059;-68
2022/05/09 11:03:22;;;;;;;12.33;3.13;;;19.90;45.90;;;;;;5134326;27;20031;-68
2022/05/09 11:06:09;;;;;;;10.53;2.97;;;20.00;47.00;;;;;;5132808;27;20051;-69
2022/05/09 11:08:43;;;;;;;10.40;3.27;;;20.00;45.10;;;;;;5134068;27;20473;-68
2022/05/09 11:11:17;;;;;;;11.38;3.40;;;20.10;44.90;;;;;;5134382;27;20483;-68
2022/05/09 11:14:06;;;;;;;8.40;2.55;;;20.10;45.10;;;;;;5133855;27;20069;-68
2022/05/09 11:16:47;;;;;;;9.63;3.37;;;20.10;45.00;;;;;;5133512;27;20475;-68
2022/05/09 11:19:42;;;;;;;10.40;2.93;;;20.10;45.00;;;;;;5132960;27;20058;-64
2022/05/09 11:22:17;;;;;;;9.30;3.10;;;20.00;43.90;;;;;;5133188;27;20086;-69
2022/05/09 11:25:01;;;;;;;14.85;2.85;;;20.00;44.20;;;;;;5130734;27;20082;-68
2022/05/09 11:27:52;;;;;;;11.35;3.33;;;20.10;44.40;;;;;;5132902;27;20046;-68
2022/05/09 11:30:27;;;;;;;9.70;3.20;;;20.00;44.00;;;;;;5131682;27;20501;-67
2022/05/09 11:33:23;;;;;;;11.37;2.83;;;20.00;43.90;;;;;;5133730;27;20047;-66
2022/05/09 11:35:55;;;;;;;8.70;2.67;;;19.90;44.50;;;;;;5133150;27;20055;-68
2022/05/09 11:38:37;;;;;;;10.20;3.10;;;19.80;44.70;;;;;;5132641;28;20047;-66
2022/05/09 11:41:30;;;;;;;8.93;3.03;;;19.80;45.30;;;;;;5133466;28;20047;-66
2022/05/09 11:44:14;;;;;;;10.40;3.13;;;20.00;45.80;;;;;;5133355;28;20047;-69
2022/05/09 11:47:02;;;;;;;10.20;3.20;;;19.90;45.70;;;;;;5133608;27;20092;-70
2022/05/09 11:49:28;;;;;;;14.53;2.93;;;19.90;45.30;;;;;;5132439;28;20051;-70
2022/05/09 11:52:01;;;;;;;9.60;2.87;;;20.00;45.60;;;;;;5132206;28;20099;-70
2022/05/09 11:54:45;;;;;;;9.20;2.80;;;19.90;45.60;;;;;;5132909;28;20043;-70
2022/05/09 11:57:11;;;;;;;7.20;2.72;;;19.90;45.30;;;;;;5132952;28;20103;-70
2022/05/09 11:59:49;;;;;;;8.40;2.70;;;20.00;45.50;;;;;;5133784;27;20113;-70
2022/05/09 12:02:36;;;;;;;9.63;2.90;;;19.90;45.80;;;;;;5133660;28;20131;-70
2022/05/09 12:05:33;;;;;;;8.97;3.17;;;20.00;45.70;;;;;;5131948;28;20051;-70
2022/05/09 12:08:04;;;;;;;9.17;2.70;;;20.00;44.80;;;;;;5132173;28;20134;-70
2022/05/09 12:10:35;;;;;;;10.03;2.70;;;20.00;45.30;;;;;;5132554;28;20049;-70
2022/05/09 12:13:14;;;;;;;11.83;3.10;;;20.00;45.30;;;;;;5133010;28;20050;-70
2022/05/09 12:15:49;;;;;;;11.80;3.07;;;20.00;45.40;;;;;;5133591;28;20046;-70
2022/05/09 12:18:31;;;;;;;9.82;3.13;;;20.10;45.20;;;;;;5132405;28;20043;-70
2022/05/09 12:21:08;;;;;;;10.90;2.87;;;20.00;45.60;;;;;;5133205;28;20046;-70
2022/05/09 12:23:47;;;;;;;14.63;3.20;;;20.00;45.40;;;;;;5133544;28;20047;-70
2022/05/09 12:26:33;;;;;;;9.07;2.80;;;20.10;45.60;;;;;;5132346;28;20055;-70
2022/05/09 12:29:28;;;;;;;11.10;2.80;;;20.00;46.60;;;;;;5135325;27;20046;-70
2022/05/09 12:31:58;;;;;;;9.93;2.40;;;20.10;46.00;;;;;;5137087;27;20054;-75
2022/05/09 12:34:37;;;;;;;8.60;2.93;;;20.10;46.00;;;;;;5135899;27;20507;-67
2022/05/09 12:37:04;;;;;;;8.73;2.60;;;20.10;43.50;;;;;;5136883;27;20558;-72
2022/05/09 12:39:36;;;;;;;9.40;3.10;;;20.10;42.70;;;;;;5137134;27;20053;-70
2022/05/09 12:42:12;;;;;;;8.37;2.77;;;20.20;42.20;;;;;;5135861;27;20050;-71
2022/05/09 12:44:45;;;;;;;7.77;2.70;;;20.20;42.30;;;;;;5136270;27;20108;-70
2022/05/09 12:47:16;;;;;;;13.13;3.03;;;20.10;42.10;;;;;;5135532;27;20818;-70
2022/05/09 12:50:01;;;;;;;8.13;2.63;;;20.10;42.00;;;;;;5137152;27;20078;-70
2022/05/09 12:52:36;;;;;;;10.17;2.97;;;20.10;42.20;;;;;;5136059;27;20078;-70
2022/05/09 12:57:48;;;;;;;12.10;3.00;;;20.00;42.20;;;;;;5136504;27;20043;-70
2022/05/09 13:00:26;;;;;;;8.03;2.27;;;20.10;42.10;;;;;;5136446;27;20051;-70
2022/05/09 13:02:51;;;;;;;8.07;2.53;;;20.10;42.20;;;;;;5136734;27;20043;-70
2022/05/09 13:05:35;;;;;;;7.37;2.17;;;20.10;41.70;;;;;;5118291;27;20054;-70
2022/05/09 13:08:04;;;;;;;7.77;2.70;;;20.10;41.40;;;;;;5135470;27;20076;-70
2022/05/09 13:10:31;;;;;;;9.97;2.83;;;20.10;41.20;;;;;;5136660;27;20104;-70
2022/05/09 13:13:02;;;;;;;8.07;2.33;;;20.00;41.30;;;;;;5136204;27;20039;-71
2022/05/09 13:15:28;;;;;;;12.70;2.47;;;20.10;41.40;;;;;;5136575;27;20483;-70
2022/05/09 13:18:06;;;;;;;7.83;2.83;;;20.20;42.00;;;;;;5135272;27;20099;-66
2022/05/09 13:20:38;;;;;;;8.40;2.80;;;20.10;41.50;;;;;;5136373;27;20043;-70
2022/05/09 13:23:07;;;;;;;9.97;2.40;;;20.20;41.60;;;;;;5134883;27;20043;-70
2022/05/09 13:25:41;;;;;;;10.47;2.30;;;20.20;41.40;;;;;;5135167;27;20039;-70
2022/05/09 13:28:13;;;;;;;7.33;2.33;;;20.20;41.30;;;;;;5135911;27;20051;-70
2022/05/09 13:31:00;;;;;;;7.10;2.23;;;20.30;40.30;;;;;;5135528;27;20047;-68
2022/05/09 13:33:29;;;;;;;6.07;2.17;;;20.30;40.90;;;;;;5135592;27;20059;-69
2022/05/09 13:36:05;;;;;;;8.73;2.63;;;20.30;41.10;;;;;;5135976;27;20043;-71